Herron, Michigan
Current Conditions -  °F | °C
As of 4:54 AM on Friday 31 Oct 2014 (Local Time) from KAPN Reporting Station
Light Rain Light Rain  
Wind Chill: 40°   Ceiling: 7000
Heat Index: 40°   Visibility: 10mi
Dew Point: 39°   Wind: 0mph
Humidity: 97%   Direction: NA
Pressure: 29.88"   Gusts: NA
Location:  45.02°N, 83.65°W
Report Text: KAPN 310854Z AUTO 00000KT 10SM -RA FEW055 BKN070 OVC085 04/04 A2988 RMK AO2 RAE06B30 SLP124 P0000 60003 T00440039 58003 TSNO
Loading
Personal Weather Stations






























Interactive Weather Map
Tropical Storm Tracking
New forecast layout! Learn more

10-Day Weather Forecast

Advertisements
Track Severe Weather on mobile